Nearby METAR Reports

 

KEDC - Austin Exec, Texas, USA
Distance from station: SSE 10mi, 17km
Updated: Tue, 28-Sep-2021 8:15am CDT
Mist
Mist
 Wind from NE
Wind: NE 5 mph , 7 km/h
Temperature: 73°F , 23°C
Dew Point: 72°F , 22°C
Humidity: 94%
Barometer: 29.91 inHg , 1012.9 hPa
Summary: Mist
Visibility: 5 miles , 8 km
2021/09/28 13:15 KEDC 281315Z AUTO 05004KT 5SM BR 23/22 A2991 RMK AO2
KGTU - Georgetown, Texas, USA
Distance from station: NNW 11mi, 17km
Updated: Tue, 28-Sep-2021 7:56am CDT
Clear
Clear
 Wind from calm
Wind: Calm
Temperature: 73°F , 23°C
Dew Point: 68°F , 20°C
Humidity: 83%
Barometer: 29.94 inHg , 1013.9 hPa
Clouds: Clear
Visibility: 10 miles , 16 km
2021/09/28 12:56 KGTU 281256Z 00000KT 10SM CLR 23/20 A2994 RMK AO2 SLP130 T02330200
 
KATT - Austin/Mabry, Texas, USA
Distance from station: SSW 18mi, 30km
Updated: Tue, 28-Sep-2021 8:21am CDT
Partly cloudy
Partly cloudy
 Wind from calm
Wind: Calm
Temperature: 75°F , 24°C
Dew Point: 66°F , 19°C
Humidity: 74%
Barometer: 29.93 inHg , 1013.5 hPa
Clouds: Partly cloudy
Visibility: 10 miles , 16 km
Cloud details: Partly cloudy 900 ft
2021/09/28 13:21 KATT 281321Z AUTO 00000KT 10SM SCT009 24/19 A2993 RMK AO2 T02440194
KRYW - Lago Vista, Texas, USA
Distance from station: W 22mi, 35km
Updated: Tue, 28-Sep-2021 8:15am CDT
Clear
Clear
 Wind from SSW
Wind: SSW 6 mph , 9 km/h
Temperature: 73°F , 23°C
Dew Point: 70°F , 21°C
Humidity: 89%
Barometer: 29.94 inHg , 1013.9 hPa
Clouds: Clear
Visibility: 10 miles , 16 km
2021/09/28 13:15 KRYW 281315Z AUTO 20005KT 10SM CLR 23/21 A2994 RMK AO2 T02330211
 
KAUS - Austin, Texas, USA
Distance from station: S 25mi, 41km
Updated: Tue, 28-Sep-2021 8:05am CDT
Overcast
Overcast
 Wind from SE
Wind: SE 5 mph , 7 km/h
Temperature: 73°F , 23°C
Dew Point: 72°F , 22°C
Humidity: 94%
Barometer: 29.92 inHg , 1013.2 hPa
Clouds: Overcast
Visibility: 1/2 mile , 0.8 km
Cloud details: Overcast 300 ft
2021/09/28 13:05 KAUS 281305Z 14004KT 1/2SM R18L/5500VP6000FT OVC003 23/22 A2992 RMK AO2 SFC VIS 7 T02280222
KILE - Killeen Muni, Texas, USA
Distance from station: N 36mi, 58km
Updated: Tue, 28-Sep-2021 7:56am CDT
Clear
Clear
 Wind from S
Wind: S 5 mph , 7 km/h
Temperature: 72°F , 22°C
Dew Point: 64°F , 18°C
Humidity: 78%
Barometer: 29.93 inHg , 1013.5 hPa
Clouds: Clear
Visibility: 10 miles , 16 km
2021/09/28 12:56 KILE 281256Z AUTO 17004KT 10SM CLR 22/18 A2993 RMK AO2 SLP121 T02170183
 
KGRK - Gray/Ft Hood, Texas, USA
Distance from station: NNW 38mi, 62km
Updated: Tue, 28-Sep-2021 7:56am CDT
Clear
Clear
 Wind from S
Wind: S 5 mph , 7 km/h
Temperature: 70°F , 21°C
Dew Point: 64°F , 18°C
Humidity: 83%
Barometer: 29.91 inHg , 1012.9 hPa
Clouds: Clear
Visibility: 10 miles , 16 km
2021/09/28 12:56 KGRK 281256Z AUTO 17004KT 10SM CLR 21/18 A2991 RMK AO2 LTG DSNT S SLP119 T02130183
KBMQ - Burnet, Texas, USA
Distance from station: WNW 39mi, 64km
Updated: Tue, 28-Sep-2021 7:53am CDT
Clear
Clear
 Wind from S
Wind: S 3 mph , 6 km/h
Temperature: 72°F , 22°C
Dew Point: 68°F , 20°C
Humidity: 88%
Barometer: 29.96 inHg , 1014.6 hPa
Clouds: Clear
Visibility: 10 miles , 16 km
2021/09/28 12:53 KBMQ 281253Z AUTO 19003KT 10SM CLR 22/20 A2996 RMK AO2 SLP126 T02220200
 
KHLR - Ft Hood/Killeen, Texas, USA
Distance from station: N 41mi, 66km
Updated: Tue, 28-Sep-2021 7:58am CDT
Clear
Clear
 Wind from S
Wind: S 5 mph , 7 km/h
Temperature: 70°F , 21°C
Dew Point: 64°F , 18°C
Humidity: 83%
Barometer: 29.92 inHg , 1013.2 hPa
Clouds: Clear
Visibility: 8 miles , 13 km
2021/09/28 12:58 KHLR 281258Z AUTO 17004KT 8SM CLR 21/18 A2992 RMK AO2 SLP122 T02060177
KTPL - Temple/Miller, Texas, USA
Distance from station: NNE 42mi, 68km
Updated: Tue, 28-Sep-2021 7:51am CDT
Clear
Clear
 Wind from SSE
Wind: SSE 5 mph , 7 km/h
Temperature: 70°F , 21°C
Dew Point: 66°F , 19°C
Humidity: 88%
Barometer: 29.93 inHg , 1013.5 hPa
Clouds: Clear
Visibility: 10 miles , 16 km
2021/09/28 12:51 KTPL 281251Z AUTO 15004KT 10SM CLR 21/19 A2993 RMK AO2 SLP125 T02110194
 
KT35 - Cameron, Texas, USA
Distance from station: ENE 45mi, 72km
Updated: Tue, 28-Sep-2021 8:15am CDT
Overcast
Overcast
 Wind from SSW
Wind: SSW 6 mph , 9 km/h
Temperature: 73°F , 23°C
Dew Point: 72°F , 22°C
Humidity: 94%
Barometer: 29.92 inHg , 1013.2 hPa
Clouds: Overcast
Visibility: 7 miles , 11 km
Cloud details: Overcast 200 ft
2021/09/28 13:15 KT35 281315Z AUTO 21005KT 7SM OVC002 23/22 A2992 RMK AO2 T02280220
KDZB - Horseshoe Bay, Texas, USA
Distance from station: W 45mi, 73km
Updated: Tue, 28-Sep-2021 8:15am CDT
Clear
Clear
 Wind from calm
Wind: Calm
Temperature: 73°F , 23°C
Dew Point: 68°F , 20°C
Humidity: 83%
Barometer: 29.93 inHg , 1013.5 hPa
Clouds: Clear
Visibility: 10 miles , 16 km
2021/09/28 13:15 KDZB 281315Z AUTO 00000KT 10SM CLR 23/20 A2993 RMK AO2 T02250200
 
KGYB - Giddings-Lee, Texas, USA
Distance from station: SE 45mi, 73km
Updated: Tue, 28-Sep-2021 8:15am CDT
Fog, Overcast
Fog, Overcast
 Wind from calm
Wind: Calm
Temperature: 75°F , 24°C
Dew Point: 73°F , 23°C
Humidity: 94%
Barometer: 29.93 inHg , 1013.5 hPa
Summary: Fog
Clouds: Overcast
Visibility: 1/2 mile , 0.8 km
Cloud details: Overcast 200 ft
2021/09/28 13:15 KGYB 281315Z AUTO 00000KT 1/2SM FG OVC002 24/23 A2993 RMK AO2 T02350231
KHYI - San Marcos, Texas, USA
Distance from station: SSW 48mi, 78km
Updated: Tue, 28-Sep-2021 7:56am CDT
Overcast
Overcast
 Wind from SSE
Wind: SSE 3 mph , 6 km/h
Temperature: 73°F , 23°C
Dew Point: 73°F , 23°C
Humidity: 100%
Barometer: 29.93 inHg , 1013.5 hPa
Clouds: Overcast
Visibility: 7 miles , 11 km
Cloud details: Overcast 300 ft
2021/09/28 12:56 KHYI 281256Z 16003KT 7SM OVC003 23/23 A2993 RMK AO2 SLP125 T02330233 PNO $
 
KLZZ - Lampasas, Texas, USA
Distance from station: NW 52mi, 84km
Updated: Tue, 28-Sep-2021 7:55am CDT
Clear
Clear
 Wind from calm
Wind: Calm
Temperature: 68°F , 20°C
Dew Point: 63°F , 17°C
Humidity: 83%
Barometer: 29.90 inHg , 1012.5 hPa
Clouds: Clear
Visibility: 10 miles , 16 km
2021/09/28 12:55 KLZZ 281255Z AUTO 00000KT 10SM CLR 20/17 A2990 RMK AO2 T02030174
KRWV - Caldwell, Texas, USA
Distance from station: E 54mi, 87km
Updated: Tue, 28-Sep-2021 8:15am CDT
Overcast
Overcast
 Wind from SW
Wind: SW 6 mph , 9 km/h
Temperature: 75°F , 24°C
Dew Point: 73°F , 23°C
Humidity: 94%
Barometer: 29.93 inHg , 1013.5 hPa
Clouds: Overcast
Visibility: 7 miles , 11 km
Cloud details: Overcast 400 ft
2021/09/28 13:15 KRWV 281315Z AUTO 22005KT 7SM OVC004 24/23 A2993 RMK AO2 T02410231
 
K3T5 - La Grange, Texas, USA
Distance from station: SE 59mi, 95km
Updated: Tue, 28-Sep-2021 8:15am CDT
Fog, Overcast
Fog, Overcast
 Wind from calm
Wind: Calm
Temperature: 77°F , 25°C
Dew Point: 77°F , 25°C
Humidity: 100%
Barometer: 29.90 inHg , 1012.5 hPa
Summary: Fog
Clouds: Overcast
Visibility: 1/2 mile , 0.8 km
Cloud details: Overcast 200 ft
2021/09/28 13:15 K3T5 281315Z AUTO 00000KT 1/2SM FG OVC002 25/25 A2990 RMK AO2 T02500250
KGOP - Gatesville, Texas, USA
Distance from station: N 61mi, 99km
Updated: Tue, 28-Sep-2021 8:15am CDT
Clear
Clear
 Wind from SE
Wind: SE 5 mph , 7 km/h
Temperature: 70°F , 21°C
Dew Point: 63°F , 17°C
Humidity: 78%
Barometer: 29.94 inHg , 1013.9 hPa
Clouds: Clear
Visibility: 10 miles , 16 km
2021/09/28 13:15 KGOP 281315Z AUTO 14004KT 10SM CLR 21/17 A2994 RMK AO2
 
KLHB - Hearne Muni, Texas, USA
Distance from station: ENE 63mi, 101km
Updated: Tue, 28-Sep-2021 8:15am CDT
Overcast
Overcast
 Wind from S
Wind: S 3 mph , 6 km/h
Temperature: 75°F , 24°C
Dew Point: 73°F , 23°C
Humidity: 94%
Barometer: 29.93 inHg , 1013.5 hPa
Clouds: Overcast
Visibility: 10 miles , 16 km
Cloud details: Overcast 700 ft
2021/09/28 13:15 KLHB 281315Z AUTO 19003KT 10SM OVC007 24/23 A2993 RMK AO2 T02400225
KBAZ - New Braunfels, Texas, USA
Distance from station: SSW 63mi, 102km
Updated: Tue, 28-Sep-2021 8:13am CDT
Mostly cloudy
Mostly cloudy
 Wind from calm
Wind: Calm
Temperature: 75°F , 24°C
Dew Point: 73°F , 23°C
Humidity: 94%
Barometer: 29.90 inHg , 1012.5 hPa
Clouds: Mostly cloudy
Visibility: 10 miles , 16 km
Cloud details: Partly cloudy 500 ft
Mostly cloudy 1200 ft
2021/09/28 13:13 KBAZ 281313Z 00000KT 10SM SCT005 BKN012 24/23 A2990 RMK AO2 T02440228